createdAt,value
2022-07-29T00:02:14.736Z,2.80
2022-07-29T00:04:41.252Z,3.20
2022-07-29T00:07:08.053Z,2.87
2022-07-29T00:09:50.540Z,3.03
2022-07-29T00:12:18.092Z,3.27
2022-07-29T00:14:53.813Z,2.80
2022-07-29T00:17:20.262Z,2.77
2022-07-29T00:19:46.657Z,2.50
2022-07-29T00:22:13.112Z,2.60
2022-07-29T00:24:39.503Z,2.83
2022-07-29T00:27:05.940Z,2.57
2022-07-29T00:29:34.005Z,2.50
2022-07-29T00:32:01.384Z,2.83
2022-07-29T00:34:46.168Z,3.10
2022-07-29T00:37:12.615Z,2.80
2022-07-29T00:39:39.058Z,3.00
2022-07-29T00:42:06.157Z,2.80
2022-07-29T00:44:37.544Z,2.83
2022-07-29T00:47:04.086Z,2.60
2022-07-29T00:49:30.675Z,2.83
2022-07-29T00:51:57.889Z,2.67
2022-07-29T00:54:24.517Z,2.73
2022-07-29T00:56:50.972Z,2.70
2022-07-29T00:59:17.372Z,2.90
2022-07-29T01:01:43.808Z,2.87
2022-07-29T01:04:10.401Z,2.83
2022-07-29T01:06:36.975Z,2.90
2022-07-29T01:09:04.179Z,2.53
2022-07-29T01:11:30.721Z,2.37
2022-07-29T01:13:57.639Z,3.10
2022-07-29T01:16:33.102Z,3.17
2022-07-29T01:19:13.908Z,2.90
2022-07-29T01:21:58.467Z,2.87
2022-07-29T01:24:56.779Z,2.53
2022-07-29T01:27:43.489Z,2.80
2022-07-29T01:30:11.796Z,2.93
2022-07-29T01:32:42.190Z,2.80
2022-07-29T01:35:22.691Z,2.97
2022-07-29T01:38:01.436Z,2.80
2022-07-29T01:40:45.988Z,2.67
2022-07-29T01:43:18.608Z,2.73
2022-07-29T01:45:51.578Z,2.93
2022-07-29T01:48:24.001Z,3.00
2022-07-29T01:51:21.359Z,2.90
2022-07-29T01:54:07.714Z,3.03
2022-07-29T01:56:36.072Z,2.80
2022-07-29T01:59:05.477Z,2.93
2022-07-29T02:01:34.192Z,3.00
2022-07-29T02:04:04.563Z,3.50
2022-07-29T02:06:33.258Z,3.37
2022-07-29T02:09:00.828Z,3.20
2022-07-29T02:11:27.769Z,3.77
2022-07-29T02:13:57.279Z,3.03
2022-07-29T02:16:24.942Z,3.00
2022-07-29T02:18:54.818Z,3.10
2022-07-29T02:21:25.057Z,2.80
2022-07-29T02:23:56.472Z,3.40
2022-07-29T02:26:25.238Z,2.80
2022-07-29T02:28:55.379Z,2.63
2022-07-29T02:31:25.185Z,3.10
2022-07-29T02:33:53.773Z,2.90
2022-07-29T02:36:23.645Z,3.00
2022-07-29T02:38:51.198Z,3.10
2022-07-29T02:41:34.253Z,3.03
2022-07-29T02:44:10.244Z,2.90
2022-07-29T02:46:38.940Z,3.10
2022-07-29T02:49:21.766Z,3.20
2022-07-29T02:52:16.832Z,3.03
2022-07-29T02:54:50.978Z,3.43
2022-07-29T02:57:29.712Z,3.57
2022-07-29T02:59:59.910Z,3.37
2022-07-29T03:02:28.250Z,3.57
2022-07-29T03:04:57.437Z,3.30
2022-07-29T03:07:25.449Z,3.10
2022-07-29T03:09:53.629Z,2.83
2022-07-29T03:12:20.473Z,3.47
2022-07-29T03:14:47.418Z,3.50
2022-07-29T03:17:14.736Z,3.50
2022-07-29T03:19:41.662Z,3.43
2022-07-29T03:22:08.325Z,3.17
2022-07-29T03:24:36.949Z,3.33
2022-07-29T03:27:04.953Z,3.67
2022-07-29T03:29:33.247Z,3.50
2022-07-29T03:32:02.724Z,3.30
2022-07-29T03:34:30.046Z,3.37
2022-07-29T03:36:56.524Z,3.50
2022-07-29T03:39:26.470Z,3.07
2022-07-29T03:41:55.905Z,3.40
2022-07-29T03:44:23.605Z,3.37
2022-07-29T03:46:52.882Z,3.17
2022-07-29T03:49:21.076Z,3.60
2022-07-29T03:51:47.642Z,3.03
2022-07-29T03:54:15.023Z,3.20
2022-07-29T03:56:48.943Z,3.47
2022-07-29T03:59:18.616Z,3.10
2022-07-29T04:01:46.166Z,3.83
2022-07-29T04:04:13.210Z,3.27
2022-07-29T04:06:41.611Z,3.20
2022-07-29T04:09:09.783Z,3.07
2022-07-29T04:12:02.245Z,3.30
2022-07-29T04:14:25.186Z,3.47
2022-07-29T04:16:51.620Z,3.50
2022-07-29T04:19:18.055Z,3.80
2022-07-29T04:21:46.078Z,3.60
2022-07-29T04:24:12.825Z,3.70
2022-07-29T04:26:39.549Z,3.73
2022-07-29T04:29:05.999Z,3.67
2022-07-29T04:31:32.490Z,3.77
2022-07-29T04:33:58.948Z,3.80
2022-07-29T04:36:29.191Z,3.80
2022-07-29T04:38:56.167Z,3.70
2022-07-29T04:41:22.594Z,4.10
2022-07-29T04:43:49.834Z,3.57
2022-07-29T04:46:16.500Z,3.83
2022-07-29T04:48:43.120Z,3.90
2022-07-29T04:51:09.630Z,3.63
2022-07-29T04:53:36.045Z,3.93
2022-07-29T04:56:03.146Z,3.60
2022-07-29T04:58:29.551Z,3.33
2022-07-29T05:00:56.083Z,3.57
2022-07-29T05:03:22.539Z,3.13
2022-07-29T05:05:49.071Z,2.93
2022-07-29T05:08:15.537Z,2.90
2022-07-29T05:10:42.069Z,2.73
2022-07-29T05:13:08.919Z,2.70
2022-07-29T05:15:36.358Z,2.83
2022-07-29T05:18:03.527Z,2.60
2022-07-29T05:20:31.137Z,2.77
2022-07-29T05:22:59.341Z,2.83
2022-07-29T05:25:43.736Z,3.07
2022-07-29T05:28:11.687Z,2.87
2022-07-29T05:30:38.331Z,2.73
2022-07-29T05:33:04.949Z,2.70
2022-07-29T05:35:31.400Z,2.80
2022-07-29T05:37:57.954Z,2.73
2022-07-29T05:40:24.450Z,3.33
2022-07-29T05:42:50.894Z,2.57
2022-07-29T05:45:17.370Z,2.43
2022-07-29T05:47:43.870Z,2.90
2022-07-29T05:50:10.332Z,2.60
2022-07-29T05:52:36.803Z,2.80
2022-07-29T05:55:05.227Z,2.87
2022-07-29T05:57:32.247Z,2.93
2022-07-29T05:59:58.834Z,3.00
2022-07-29T06:02:25.370Z,2.10
2022-07-29T06:04:51.884Z,1.97
2022-07-29T06:07:18.607Z,1.90
2022-07-29T06:09:45.295Z,2.60
2022-07-29T06:12:11.734Z,2.20
2022-07-29T06:14:39.132Z,2.27
2022-07-29T06:17:06.511Z,2.23
2022-07-29T06:19:36.072Z,1.90
2022-07-29T06:22:02.716Z,2.07
2022-07-29T06:24:29.324Z,1.80
2022-07-29T06:26:55.906Z,2.00
2022-07-29T06:29:22.394Z,2.33
2022-07-29T06:31:48.825Z,2.13
2022-07-29T06:34:15.594Z,2.40
2022-07-29T06:36:42.180Z,2.07
2022-07-29T06:39:09.138Z,1.87
2022-07-29T06:41:36.333Z,1.90
2022-07-29T06:44:02.851Z,2.03
2022-07-29T06:46:29.779Z,1.90
2022-07-29T06:48:56.326Z,2.10
2022-07-29T06:51:23.881Z,2.20
2022-07-29T06:54:01.422Z,1.70
2022-07-29T06:56:39.380Z,2.53
2022-07-29T06:59:07.923Z,1.93
2022-07-29T07:01:34.386Z,1.80
2022-07-29T07:04:00.932Z,1.70
2022-07-29T07:06:27.434Z,2.07
2022-07-29T07:08:54.575Z,2.17
2022-07-29T07:11:21.045Z,2.30
2022-07-29T07:13:47.515Z,1.80
2022-07-29T07:16:14.033Z,2.10
2022-07-29T07:18:40.516Z,2.53
2022-07-29T07:21:07.118Z,2.00
2022-07-29T07:23:34.567Z,1.80
2022-07-29T07:26:01.258Z,1.90
2022-07-29T07:28:29.071Z,1.83
2022-07-29T07:30:55.977Z,2.10
2022-07-29T07:33:22.408Z,2.07
2022-07-29T07:35:49.289Z,2.47
2022-07-29T07:38:15.736Z,1.90
2022-07-29T07:40:42.199Z,2.70
2022-07-29T07:43:08.670Z,2.53
2022-07-29T07:45:35.250Z,2.00
2022-07-29T07:48:01.782Z,2.03
2022-07-29T07:50:28.395Z,2.17
2022-07-29T07:52:58.637Z,2.17
2022-07-29T07:55:26.176Z,2.30
2022-07-29T07:57:53.076Z,2.20
2022-07-29T08:00:19.599Z,2.10
2022-07-29T08:02:49.428Z,2.23
2022-07-29T08:05:19.507Z,2.40
2022-07-29T08:07:47.371Z,2.37
2022-07-29T08:10:38.897Z,2.53
2022-07-29T08:13:10.079Z,2.50
2022-07-29T08:15:36.831Z,2.10
2022-07-29T08:18:08.353Z,2.20
2022-07-29T08:20:36.614Z,2.23
2022-07-29T08:23:03.905Z,2.17
2022-07-29T08:25:30.432Z,2.40
2022-07-29T08:27:57.416Z,2.47
2022-07-29T08:30:23.845Z,2.13
2022-07-29T08:32:56.596Z,1.87
2022-07-29T08:35:24.448Z,2.27
2022-07-29T08:37:52.053Z,1.90
2022-07-29T08:40:19.055Z,1.90
2022-07-29T08:42:45.484Z,2.40
2022-07-29T08:45:12.919Z,2.50
2022-07-29T08:47:43.227Z,2.50
2022-07-29T08:50:11.077Z,2.13
2022-07-29T08:52:40.459Z,2.50
2022-07-29T08:55:10.584Z,1.90
2022-07-29T08:57:37.465Z,2.40
2022-07-29T09:00:08.104Z,2.13
2022-07-29T09:02:41.314Z,1.80
2022-07-29T09:05:08.427Z,2.00
2022-07-29T09:07:35.344Z,2.20
2022-07-29T09:10:02.729Z,2.43
2022-07-29T09:12:33.692Z,1.90
2022-07-29T09:15:02.737Z,3.10
2022-07-29T09:17:50.050Z,2.60
2022-07-29T09:20:23.163Z,3.00
2022-07-29T09:22:51.776Z,2.10
2022-07-29T09:25:39.014Z,2.97
2022-07-29T09:28:20.119Z,3.00
2022-07-29T09:30:55.104Z,2.77
2022-07-29T09:33:23.341Z,2.43
2022-07-29T09:36:07.304Z,3.00
2022-07-29T09:38:34.900Z,2.30
2022-07-29T09:41:06.364Z,2.83
2022-07-29T09:43:33.856Z,3.07
2022-07-29T09:46:14.042Z,2.70
2022-07-29T09:48:40.704Z,2.23
2022-07-29T09:51:20.578Z,2.50
2022-07-29T09:53:49.140Z,3.33
2022-07-29T09:56:15.576Z,2.47
2022-07-29T09:58:42.050Z,2.60
2022-07-29T10:01:08.747Z,2.80
2022-07-29T10:03:52.841Z,3.13
2022-07-29T10:06:19.518Z,2.63
2022-07-29T10:08:46.572Z,2.90
2022-07-29T10:11:20.163Z,2.27
2022-07-29T10:13:48.707Z,2.67
2022-07-29T10:16:16.454Z,2.80
2022-07-29T10:18:44.696Z,3.00
2022-07-29T10:21:22.669Z,3.00
2022-07-29T10:24:01.305Z,3.57
2022-07-29T10:26:29.218Z,3.17
2022-07-29T10:28:56.507Z,3.17
2022-07-29T10:31:30.496Z,2.50
2022-07-29T10:34:13.055Z,2.83
2022-07-29T10:36:55.212Z,2.30
2022-07-29T10:39:49.775Z,3.00
2022-07-29T10:42:33.326Z,2.93
2022-07-29T10:45:02.697Z,3.00
2022-07-29T10:47:31.734Z,2.80
2022-07-29T10:50:06.104Z,3.53
2022-07-29T10:52:51.043Z,3.27
2022-07-29T10:55:37.539Z,3.20
2022-07-29T10:58:17.965Z,3.30
2022-07-29T11:00:51.096Z,2.97
2022-07-29T11:03:57.246Z,3.17
2022-07-29T11:06:28.089Z,3.30
2022-07-29T11:09:18.302Z,3.00
2022-07-29T11:11:51.497Z,2.90
2022-07-29T11:14:19.844Z,3.53
2022-07-29T11:17:06.426Z,3.60
2022-07-29T11:19:34.009Z,3.50
2022-07-29T11:22:02.481Z,3.07
2022-07-29T11:24:32.333Z,3.30
2022-07-29T11:27:40.522Z,3.50
2022-07-29T11:30:08.511Z,3.80
2022-07-29T11:32:41.338Z,3.83
2022-07-29T11:35:17.800Z,4.60
2022-07-29T11:37:52.290Z,4.67
2022-07-29T11:40:20.158Z,4.90
2022-07-29T11:42:48.691Z,5.40
2022-07-29T11:45:43.825Z,5.30
2022-07-29T11:48:32.137Z,4.93
2022-07-29T11:51:00.274Z,3.27
2022-07-29T11:53:29.035Z,3.50
2022-07-29T11:56:00.709Z,3.00
2022-07-29T11:58:28.399Z,3.97
2022-07-29T12:00:56.326Z,3.20
2022-07-29T12:03:35.436Z,3.70
2022-07-29T12:06:12.230Z,4.13
2022-07-29T12:08:44.283Z,3.90
2022-07-29T12:11:29.567Z,3.50
2022-07-29T12:13:56.483Z,3.87
2022-07-29T12:16:25.945Z,3.70
2022-07-29T12:19:05.860Z,3.87
2022-07-29T12:21:56.287Z,3.23
2022-07-29T12:24:26.491Z,2.87
2022-07-29T12:27:00.784Z,2.50
2022-07-29T12:29:33.933Z,2.23
2022-07-29T12:32:02.323Z,2.30
2022-07-29T12:34:30.215Z,1.87
2022-07-29T12:36:56.858Z,2.00
2022-07-29T12:39:23.556Z,1.60
2022-07-29T12:41:50.016Z,1.70
2022-07-29T12:44:16.509Z,1.70
2022-07-29T12:46:43.020Z,1.53
2022-07-29T12:49:09.972Z,1.43
2022-07-29T12:51:39.188Z,1.23
2022-07-29T12:54:14.592Z,1.40
2022-07-29T12:56:44.352Z,1.37
2022-07-29T12:59:19.667Z,1.50
2022-07-29T13:01:49.010Z,1.60
2022-07-29T13:04:37.508Z,1.60
2022-07-29T13:07:07.387Z,1.80
2022-07-29T13:10:00.695Z,2.10
2022-07-29T13:12:27.143Z,1.80
2022-07-29T13:14:53.591Z,1.80
2022-07-29T13:17:23.914Z,1.80
2022-07-29T13:19:52.575Z,1.80
2022-07-29T13:22:24.630Z,1.90
2022-07-29T13:24:53.867Z,1.70
2022-07-29T13:27:25.477Z,1.63
2022-07-29T13:29:53.398Z,1.80
2022-07-29T13:32:28.772Z,2.00
2022-07-29T13:35:05.433Z,2.10
2022-07-29T13:37:35.010Z,2.27
2022-07-29T13:40:04.033Z,2.67
2022-07-29T13:42:30.921Z,2.27
2022-07-29T13:44:57.356Z,2.27
2022-07-29T13:47:32.294Z,2.57
2022-07-29T13:50:03.965Z,2.90
2022-07-29T13:52:32.624Z,2.70
2022-07-29T13:54:59.401Z,3.30
2022-07-29T13:57:25.938Z,2.83
2022-07-29T13:59:54.473Z,2.70
2022-07-29T14:02:25.935Z,3.07
2022-07-29T14:04:56.421Z,2.37
2022-07-29T14:07:23.707Z,3.07
2022-07-29T14:09:51.024Z,2.57
2022-07-29T14:12:17.454Z,3.00
2022-07-29T14:14:44.018Z,3.17
2022-07-29T14:17:13.756Z,3.37
2022-07-29T14:19:40.373Z,3.10
2022-07-29T14:22:08.726Z,2.57
2022-07-29T14:24:37.069Z,3.20
2022-07-29T14:27:04.845Z,2.90
2022-07-29T14:29:37.577Z,3.10
2022-07-29T14:32:09.179Z,3.30
2022-07-29T14:34:37.023Z,3.50
2022-07-29T14:37:06.121Z,3.50
2022-07-29T14:39:32.997Z,3.00
2022-07-29T14:42:00.331Z,4.07
2022-07-29T14:44:32.047Z,3.93
2022-07-29T14:47:00.526Z,4.17
2022-07-29T14:49:27.833Z,4.20
2022-07-29T14:51:54.562Z,4.10
2022-07-29T14:54:21.035Z,3.90
2022-07-29T14:56:47.766Z,4.17
2022-07-29T14:59:14.629Z,3.80
2022-07-29T15:01:41.100Z,4.30
2022-07-29T15:04:07.584Z,4.00
2022-07-29T15:06:34.948Z,3.80
2022-07-29T15:09:01.423Z,3.80
2022-07-29T15:11:27.842Z,3.90
2022-07-29T15:13:54.334Z,3.73
2022-07-29T15:16:21.809Z,3.60
2022-07-29T15:18:48.340Z,4.33
2022-07-29T15:21:15.992Z,4.20
2022-07-29T15:23:42.447Z,3.93
2022-07-29T15:26:08.936Z,3.17
2022-07-29T15:28:37.166Z,3.83
2022-07-29T15:31:03.620Z,3.70
2022-07-29T15:33:30.046Z,3.87
2022-07-29T15:35:57.153Z,3.17
2022-07-29T15:38:28.663Z,3.20
2022-07-29T15:40:55.706Z,3.70
2022-07-29T15:43:22.332Z,3.30
2022-07-29T15:46:07.519Z,3.90
2022-07-29T15:48:34.419Z,3.60
2022-07-29T15:51:01.129Z,3.30
2022-07-29T15:53:27.794Z,3.53
2022-07-29T15:55:54.322Z,3.23
2022-07-29T15:58:21.009Z,3.73
2022-07-29T16:00:47.825Z,3.67
2022-07-29T16:03:15.112Z,3.80
2022-07-29T16:05:43.398Z,3.57
2022-07-29T16:08:10.205Z,3.20
2022-07-29T16:10:36.765Z,3.60
2022-07-29T16:13:05.020Z,3.70
2022-07-29T16:15:31.598Z,3.80
2022-07-29T16:17:58.158Z,3.40
2022-07-29T16:20:24.697Z,3.33
2022-07-29T16:22:51.467Z,3.50
2022-07-29T16:25:18.666Z,3.40
2022-07-29T16:27:45.269Z,3.60
2022-07-29T16:30:12.143Z,3.80
2022-07-29T16:32:40.015Z,3.13
2022-07-29T16:35:07.456Z,3.40
2022-07-29T16:37:37.113Z,3.37
2022-07-29T16:40:23.903Z,3.53
2022-07-29T16:42:50.410Z,3.43
2022-07-29T16:45:17.419Z,3.10
2022-07-29T16:47:48.028Z,3.43
2022-07-29T16:50:15.033Z,3.37
2022-07-29T16:52:41.646Z,3.33
2022-07-29T16:55:09.349Z,3.37
2022-07-29T16:57:36.012Z,4.80
2022-07-29T17:00:03.531Z,3.53
2022-07-29T17:02:30.228Z,3.10
2022-07-29T17:04:57.452Z,3.37
2022-07-29T17:07:23.958Z,3.43
2022-07-29T17:09:55.109Z,3.37
2022-07-29T17:12:22.465Z,3.40
2022-07-29T17:14:48.916Z,3.77
2022-07-29T17:17:20.982Z,3.60
2022-07-29T17:20:09.743Z,3.30
2022-07-29T17:22:36.853Z,3.53
2022-07-29T17:25:05.448Z,3.33
2022-07-29T17:27:32.879Z,3.43
2022-07-29T17:30:08.965Z,3.47
2022-07-29T17:32:39.874Z,3.20
2022-07-29T17:35:26.130Z,3.67
2022-07-29T17:37:53.019Z,3.27
2022-07-29T17:40:19.551Z,3.50
2022-07-29T17:42:47.304Z,3.63
2022-07-29T17:45:13.969Z,3.77
2022-07-29T17:47:41.818Z,3.30
2022-07-29T17:50:08.629Z,3.40
2022-07-29T17:52:35.726Z,3.83
2022-07-29T17:55:02.612Z,3.20
2022-07-29T17:57:29.238Z,5.17
2022-07-29T17:59:55.796Z,3.70
2022-07-29T18:02:24.351Z,3.20
2022-07-29T18:04:53.407Z,4.03
2022-07-29T18:07:20.046Z,4.00
2022-07-29T18:09:46.639Z,3.60
2022-07-29T18:12:13.236Z,3.20
2022-07-29T18:14:39.803Z,3.50
2022-07-29T18:17:06.492Z,3.40
2022-07-29T18:19:33.022Z,3.77
2022-07-29T18:22:05.086Z,3.50
2022-07-29T18:24:32.790Z,3.10
2022-07-29T18:26:59.602Z,3.30
2022-07-29T18:29:29.194Z,3.60
2022-07-29T18:31:56.831Z,3.40
2022-07-29T18:34:23.314Z,3.63
2022-07-29T18:36:49.869Z,3.47
2022-07-29T18:39:20.842Z,3.43
2022-07-29T18:41:50.114Z,3.83
2022-07-29T18:44:22.025Z,3.77
2022-07-29T18:46:50.358Z,3.57
2022-07-29T18:49:17.067Z,3.77
2022-07-29T18:51:43.637Z,4.07
2022-07-29T18:54:10.899Z,3.47
2022-07-29T18:56:38.152Z,3.87
2022-07-29T18:59:05.392Z,3.77
2022-07-29T19:01:32.828Z,3.50
2022-07-29T19:04:00.982Z,4.97
2022-07-29T19:06:27.656Z,3.17
2022-07-29T19:08:54.286Z,3.50
2022-07-29T19:11:20.867Z,3.40
2022-07-29T19:13:47.419Z,3.70
2022-07-29T19:16:14.492Z,3.43
2022-07-29T19:18:41.853Z,3.57
2022-07-29T19:21:09.131Z,3.63
2022-07-29T19:24:01.671Z,3.60
2022-07-29T19:26:23.091Z,3.20
2022-07-29T19:28:53.000Z,3.30
2022-07-29T19:31:19.637Z,3.60
2022-07-29T19:33:46.304Z,3.43
2022-07-29T19:36:13.055Z,3.20
2022-07-29T19:38:39.574Z,3.30
2022-07-29T19:41:06.361Z,3.30
2022-07-29T19:43:50.695Z,3.33
2022-07-29T19:46:18.997Z,3.23
2022-07-29T19:48:45.731Z,3.53
2022-07-29T19:51:12.437Z,3.30
2022-07-29T19:53:39.297Z,3.23
2022-07-29T19:56:06.124Z,3.20
2022-07-29T19:58:35.799Z,3.40
2022-07-29T20:01:10.233Z,3.37
2022-07-29T20:03:39.871Z,3.20
2022-07-29T20:06:07.759Z,3.50
2022-07-29T20:08:34.771Z,4.03
2022-07-29T20:11:02.146Z,4.00
2022-07-29T20:13:31.262Z,3.90
2022-07-29T20:15:58.229Z,3.83
2022-07-29T20:18:26.411Z,3.23
2022-07-29T20:20:53.992Z,3.20
2022-07-29T20:23:22.329Z,3.43
2022-07-29T20:25:49.521Z,4.60
2022-07-29T20:28:16.160Z,3.97
2022-07-29T20:30:45.627Z,3.80
2022-07-29T20:33:14.227Z,3.10
2022-07-29T20:35:41.040Z,3.20
2022-07-29T20:38:07.782Z,3.77
2022-07-29T20:40:35.776Z,3.40
2022-07-29T20:43:02.380Z,3.40
2022-07-29T20:45:29.121Z,3.60
2022-07-29T20:47:55.843Z,3.43
2022-07-29T20:50:24.246Z,3.47
2022-07-29T20:52:52.602Z,3.20
2022-07-29T20:55:19.642Z,3.30
2022-07-29T20:57:46.877Z,3.70
2022-07-29T21:00:14.347Z,3.60
2022-07-29T21:02:41.051Z,3.80
2022-07-29T21:05:08.095Z,3.30
2022-07-29T21:07:38.964Z,3.23
2022-07-29T21:10:06.058Z,3.50
2022-07-29T21:12:35.565Z,3.37
2022-07-29T21:15:07.780Z,3.87
2022-07-29T21:17:40.974Z,3.90
2022-07-29T21:20:11.660Z,4.00
2022-07-29T21:22:38.451Z,4.17
2022-07-29T21:25:06.222Z,3.77
2022-07-29T21:27:51.398Z,4.07
2022-07-29T21:30:18.393Z,3.60
2022-07-29T21:32:45.039Z,4.43
2022-07-29T21:35:22.345Z,3.40
2022-07-29T21:37:58.562Z,3.30
2022-07-29T21:40:28.516Z,3.30
2022-07-29T21:42:55.372Z,3.73
2022-07-29T21:45:22.237Z,3.83
2022-07-29T21:47:48.881Z,3.87
2022-07-29T21:50:15.701Z,3.57
2022-07-29T21:52:42.295Z,3.53
2022-07-29T21:55:11.503Z,3.93
2022-07-29T21:57:38.453Z,3.23
2022-07-29T22:00:08.007Z,3.60
2022-07-29T22:02:34.932Z,3.90
2022-07-29T22:05:04.450Z,3.90
2022-07-29T22:07:55.637Z,3.40
2022-07-29T22:10:18.325Z,3.60
2022-07-29T22:12:45.041Z,4.43
2022-07-29T22:15:12.021Z,3.20
2022-07-29T22:17:41.047Z,3.70
2022-07-29T22:20:08.285Z,3.30
2022-07-29T22:22:35.562Z,3.50
2022-07-29T22:25:03.007Z,3.50
2022-07-29T22:27:29.667Z,3.40
2022-07-29T22:29:58.549Z,3.67
2022-07-29T22:32:27.137Z,3.50
2022-07-29T22:34:53.709Z,3.23
2022-07-29T22:37:20.725Z,3.37
2022-07-29T22:39:47.275Z,3.40
2022-07-29T22:42:13.990Z,3.93
2022-07-29T22:44:40.595Z,3.20
2022-07-29T22:47:07.281Z,3.27
2022-07-29T22:49:34.118Z,3.20
2022-07-29T22:52:00.749Z,3.10
2022-07-29T22:54:27.686Z,3.17
2022-07-29T22:56:54.834Z,3.30
2022-07-29T22:59:21.423Z,3.03
2022-07-29T23:01:48.056Z,3.50
2022-07-29T23:04:15.380Z,3.40
2022-07-29T23:06:43.578Z,3.60
2022-07-29T23:09:10.147Z,3.43
2022-07-29T23:11:36.818Z,3.63
2022-07-29T23:14:03.793Z,3.10
2022-07-29T23:16:30.796Z,3.60
2022-07-29T23:19:00.775Z,3.60
2022-07-29T23:21:31.190Z,3.83
2022-07-29T23:23:57.923Z,3.93
2022-07-29T23:26:24.484Z,3.80
2022-07-29T23:28:51.190Z,2.80
2022-07-29T23:31:18.934Z,3.23
2022-07-29T23:33:45.566Z,4.00
2022-07-29T23:36:12.164Z,3.70
2022-07-29T23:38:40.996Z,3.73
2022-07-29T23:41:09.861Z,3.63
2022-07-29T23:43:37.331Z,3.30
2022-07-29T23:46:04.396Z,3.43
2022-07-29T23:48:33.138Z,3.60
2022-07-29T23:51:01.141Z,3.67
2022-07-29T23:53:28.722Z,3.77
2022-07-29T23:55:57.556Z,3.40
2022-07-29T23:58:24.384Z,3.70
